Andersen Air Force Base Andersen GU
ICAO: PGUA
IATA:
Category: MediumMariana Island
Scheduled Services: 627

Elevation: 13.5839996337891 ft
TransAlt. 18000 ft.

Airport Communications:
GUAM APP/DEP:118.7
AMC COMD POST:128
ATIS:118.175
GND:121.7
GUAM CERAP:118.7
13AF AOC:23.93
PMSV METRO:34.46
36 ABW COMD POST:31.1
PTD:139.3
TWR:126.2

PGUA Zoom In..

Runways:

(A) RW 06L length 10527 ft width 200 ft
ILS 109.30 / hdg 64

(B) RW 06R length 11200 ft width 200 ft
ILS 110.10 / hdg 64

(C) RW 24L length 11200 ft width 200 ft
ILS 110.10 / hdg 244

(D) RW 24R length 10527 ft width 200 ft
ILS 109.30 / hdg 244

Location; PGUA
Day. 11 / Time. 08.56 Zulu
* Altimeter: 29.91
* Temperature: 28° c. 82.4°f.
* Wind from: 080° Speed 11 kn.
Dewpoint: 24° c.
Visibility: 10 Statute Miles.
Clouds: Broken 1400 ft.

PGUA 110856Z 08011KT 10SM BKN014 28/24 A2991 RMK AO2A CIG 013 RWY24L SLP119 T02790243 53015 $

Going to: --> -->


Wind From 080°
Speed 11 kn.

 
 
jpsmedia worldairports.se 2020   terms of use